EVVA

Ventspils International Airport

Ventspils, Latvia
METAR EVVA 191850Z AUTO 21008KT CAVOK 16/15 Q1014
Observed Flight Rules
Sep-19 @ 18:50 UTC (23 minutes ago) Visual Flight Rules
Wind Visibility Clouds
210° at 8 knots 10,000+ meters
  • Clear skies
Temperatures Readings
Current 16°C / 61°F
Dewpoint 15°C / 59°F
Humidity 94%
Altimeter 29.94" Hg
Pressure 1014 hPa
Elevation 6
METAR EVVA 191850Z AUTO 21008KT CAVOK 16/15 Q1014
Observed Flight Rules
Sep-19 @ 18:50 UTC
(23 minutes ago)
VFR
Wind Visibility
210° at 8 knots 10,000+ meters
Clouds
  • Clear skies
Temperature Dewpoint
16°C / 61°F 15°C / 59°F
Humidity Altimeter Pressure
94% 29.94" Hg 1014 hPa